sensor_id;sensor_type;location;lat;lon;timestamp;P1;durP1;ratioP1;P2;durP2;ratioP2
25319;SDS011;13256;49.012;8.610;2023-06-10T00:00:17;7.65;;;6.18;;
25319;SDS011;13256;49.012;8.610;2023-06-10T00:02:46;10.38;;;5.53;;
25319;SDS011;13256;49.012;8.610;2023-06-10T00:05:18;9.38;;;5.72;;
25319;SDS011;13256;49.012;8.610;2023-06-10T00:07:47;7.97;;;5.47;;
25319;SDS011;13256;49.012;8.610;2023-06-10T00:10:17;7.38;;;5.88;;
25319;SDS011;13256;49.012;8.610;2023-06-10T00:12:48;8.13;;;5.85;;
25319;SDS011;13256;49.012;8.610;2023-06-10T00:15:18;7.82;;;5.68;;
25319;SDS011;13256;49.012;8.610;2023-06-10T00:17:48;8.27;;;5.47;;
25319;SDS011;13256;49.012;8.610;2023-06-10T00:20:15;9.32;;;5.88;;
25319;SDS011;13256;49.012;8.610;2023-06-10T00:22:42;9.85;;;5.93;;
25319;SDS011;13256;49.012;8.610;2023-06-10T00:25:20;8.05;;;6.05;;
25319;SDS011;13256;49.012;8.610;2023-06-10T00:27:47;8.73;;;5.82;;
25319;SDS011;13256;49.012;8.610;2023-06-10T00:30:20;8.23;;;5.60;;
25319;SDS011;13256;49.012;8.610;2023-06-10T00:32:57;10.48;;;6.10;;
25319;SDS011;13256;49.012;8.610;2023-06-10T00:35:26;7.22;;;6.05;;
25319;SDS011;13256;49.012;8.610;2023-06-10T00:37:53;7.93;;;5.88;;
25319;SDS011;13256;49.012;8.610;2023-06-10T00:40:23;8.77;;;5.40;;
25319;SDS011;13256;49.012;8.610;2023-06-10T00:42:51;13.15;;;5.93;;
25319;SDS011;13256;49.012;8.610;2023-06-10T00:45:29;13.48;;;5.90;;
25319;SDS011;13256;49.012;8.610;2023-06-10T00:47:58;8.18;;;5.95;;
25319;SDS011;13256;49.012;8.610;2023-06-10T00:50:33;10.02;;;6.90;;
25319;SDS011;13256;49.012;8.610;2023-06-10T00:53:00;9.05;;;6.20;;
25319;SDS011;13256;49.012;8.610;2023-06-10T00:55:32;9.15;;;6.47;;
25319;SDS011;13256;49.012;8.610;2023-06-10T00:57:59;9.13;;;6.15;;
25319;SDS011;13256;49.012;8.610;2023-06-10T01:00:31;6.80;;;5.80;;
25319;SDS011;13256;49.012;8.610;2023-06-10T01:03:00;7.68;;;5.95;;
25319;SDS011;13256;49.012;8.610;2023-06-10T01:05:35;9.38;;;6.25;;
25319;SDS011;13256;49.012;8.610;2023-06-10T01:08:24;7.63;;;5.65;;
25319;SDS011;13256;49.012;8.610;2023-06-10T01:11:01;8.95;;;6.20;;
25319;SDS011;13256;49.012;8.610;2023-06-10T01:13:37;8.60;;;6.60;;
25319;SDS011;13256;49.012;8.610;2023-06-10T01:16:07;9.48;;;5.82;;
25319;SDS011;13256;49.012;8.610;2023-06-10T01:18:39;13.43;;;6.60;;
25319;SDS011;13256;49.012;8.610;2023-06-10T01:21:14;8.57;;;6.00;;
25319;SDS011;13256;49.012;8.610;2023-06-10T01:23:53;9.25;;;6.63;;
25319;SDS011;13256;49.012;8.610;2023-06-10T01:26:22;8.90;;;6.10;;
25319;SDS011;13256;49.012;8.610;2023-06-10T01:29:12;10.93;;;5.95;;
25319;SDS011;13256;49.012;8.610;2023-06-10T01:34:47;9.15;;;5.90;;
25319;SDS011;13256;49.012;8.610;2023-06-10T01:37:18;8.55;;;6.60;;
25319;SDS011;13256;49.012;8.610;2023-06-10T01:39:53;8.75;;;6.18;;
25319;SDS011;13256;49.012;8.610;2023-06-10T01:42:23;10.38;;;6.57;;
25319;SDS011;13256;49.012;8.610;2023-06-10T01:44:52;11.25;;;6.53;;
25319;SDS011;13256;49.012;8.610;2023-06-10T01:47:19;12.02;;;6.40;;
25319;SDS011;13256;49.012;8.610;2023-06-10T01:49:49;7.68;;;6.15;;
25319;SDS011;13256;49.012;8.610;2023-06-10T01:52:16;8.60;;;5.72;;
25319;SDS011;13256;49.012;8.610;2023-06-10T01:54:45;8.63;;;6.40;;
25319;SDS011;13256;49.012;8.610;2023-06-10T01:57:15;7.72;;;6.05;;
25319;SDS011;13256;49.012;8.610;2023-06-10T01:59:41;8.45;;;6.40;;
25319;SDS011;13256;49.012;8.610;2023-06-10T02:02:40;7.70;;;5.85;;
25319;SDS011;13256;49.012;8.610;2023-06-10T02:05:12;9.48;;;6.07;;
25319;SDS011;13256;49.012;8.610;2023-06-10T02:07:39;8.90;;;6.20;;
25319;SDS011;13256;49.012;8.610;2023-06-10T02:10:08;11.70;;;6.10;;
25319;SDS011;13256;49.012;8.610;2023-06-10T02:12:35;7.65;;;5.97;;
25319;SDS011;13256;49.012;8.610;2023-06-10T02:15:02;10.90;;;6.25;;
25319;SDS011;13256;49.012;8.610;2023-06-10T02:17:33;8.50;;;6.70;;
25319;SDS011;13256;49.012;8.610;2023-06-10T02:20:00;12.07;;;6.18;;
25319;SDS011;13256;49.012;8.610;2023-06-10T02:22:30;10.48;;;6.30;;
25319;SDS011;13256;49.012;8.610;2023-06-10T02:24:59;8.52;;;6.13;;
25319;SDS011;13256;49.012;8.610;2023-06-10T02:27:27;8.20;;;6.25;;
25319;SDS011;13256;49.012;8.610;2023-06-10T02:29:56;8.68;;;6.20;;
25319;SDS011;13256;49.012;8.610;2023-06-10T02:32:24;11.98;;;6.20;;
25319;SDS011;13256;49.012;8.610;2023-06-10T02:34:52;6.75;;;5.53;;
25319;SDS011;13256;49.012;8.610;2023-06-10T02:37:22;8.55;;;6.07;;
25319;SDS011;13256;49.012;8.610;2023-06-10T02:39:50;8.85;;;5.35;;
25319;SDS011;13256;49.012;8.610;2023-06-10T02:42:17;11.73;;;6.47;;
25319;SDS011;13256;49.012;8.610;2023-06-10T02:44:46;7.80;;;5.78;;
25319;SDS011;13256;49.012;8.610;2023-06-10T02:47:20;7.25;;;5.85;;
25319;SDS011;13256;49.012;8.610;2023-06-10T02:49:46;10.63;;;6.40;;
25319;SDS011;13256;49.012;8.610;2023-06-10T02:52:13;7.82;;;5.82;;
25319;SDS011;13256;49.012;8.610;2023-06-10T02:54:40;9.23;;;6.13;;
25319;SDS011;13256;49.012;8.610;2023-06-10T02:57:09;12.50;;;6.57;;
25319;SDS011;13256;49.012;8.610;2023-06-10T02:59:36;10.85;;;6.20;;
25319;SDS011;13256;49.012;8.610;2023-06-10T03:02:07;8.32;;;5.65;;
25319;SDS011;13256;49.012;8.610;2023-06-10T03:04:43;8.00;;;5.82;;
25319;SDS011;13256;49.012;8.610;2023-06-10T03:07:15;8.68;;;6.32;;
25319;SDS011;13256;49.012;8.610;2023-06-10T03:09:52;9.02;;;6.35;;
25319;SDS011;13256;49.012;8.610;2023-06-10T03:12:19;10.98;;;6.72;;
25319;SDS011;13256;49.012;8.610;2023-06-10T03:14:48;9.05;;;5.72;;
25319;SDS011;13256;49.012;8.610;2023-06-10T03:17:16;7.82;;;5.57;;
25319;SDS011;13256;49.012;8.610;2023-06-10T03:19:47;8.93;;;6.05;;
25319;SDS011;13256;49.012;8.610;2023-06-10T03:22:17;9.32;;;6.07;;
25319;SDS011;13256;49.012;8.610;2023-06-10T03:24:57;10.02;;;6.80;;
25319;SDS011;13256;49.012;8.610;2023-06-10T03:27:27;8.73;;;5.70;;
25319;SDS011;13256;49.012;8.610;2023-06-10T03:29:59;10.20;;;5.88;;
25319;SDS011;13256;49.012;8.610;2023-06-10T03:32:39;8.70;;;5.88;;
25319;SDS011;13256;49.012;8.610;2023-06-10T03:35:08;10.50;;;5.95;;
25319;SDS011;13256;49.012;8.610;2023-06-10T03:37:37;9.40;;;6.05;;
25319;SDS011;13256;49.012;8.610;2023-06-10T03:52:10;8.82;;;6.22;;
25319;SDS011;13256;49.012;8.610;2023-06-10T04:00:23;11.02;;;6.25;;
25319;SDS011;13256;49.012;8.610;2023-06-10T04:02:51;11.57;;;6.07;;
25319;SDS011;13256;49.012;8.610;2023-06-10T04:08:26;9.35;;;5.60;;
25319;SDS011;13256;49.012;8.610;2023-06-10T04:10:53;15.73;;;8.52;;
25319;SDS011;13256;49.012;8.610;2023-06-10T04:13:19;19.63;;;12.13;;
25319;SDS011;13256;49.012;8.610;2023-06-10T04:15:57;15.35;;;8.85;;
25319;SDS011;13256;49.012;8.610;2023-06-10T04:18:33;10.52;;;6.85;;
25319;SDS011;13256;49.012;8.610;2023-06-10T04:21:06;10.80;;;6.00;;
25319;SDS011;13256;49.012;8.610;2023-06-10T04:23:36;12.07;;;7.57;;
25319;SDS011;13256;49.012;8.610;2023-06-10T04:26:09;10.90;;;6.50;;
25319;SDS011;13256;49.012;8.610;2023-06-10T04:28:39;15.05;;;6.90;;
25319;SDS011;13256;49.012;8.610;2023-06-10T04:34:00;8.95;;;5.90;;
25319;SDS011;13256;49.012;8.610;2023-06-10T04:36:29;9.90;;;6.18;;
25319;SDS011;13256;49.012;8.610;2023-06-10T04:39:03;9.98;;;6.22;;
25319;SDS011;13256;49.012;8.610;2023-06-10T04:41:32;8.88;;;6.18;;
25319;SDS011;13256;49.012;8.610;2023-06-10T04:44:04;13.15;;;6.75;;
25319;SDS011;13256;49.012;8.610;2023-06-10T04:46:33;12.10;;;6.25;;
25319;SDS011;13256;49.012;8.610;2023-06-10T04:48:59;8.40;;;5.78;;
25319;SDS011;13256;49.012;8.610;2023-06-10T04:51:26;8.95;;;6.03;;
25319;SDS011;13256;49.012;8.610;2023-06-10T04:53:54;10.85;;;5.78;;
25319;SDS011;13256;49.012;8.610;2023-06-10T04:56:20;11.07;;;6.07;;
25319;SDS011;13256;49.012;8.610;2023-06-10T04:58:50;10.30;;;5.70;;
25319;SDS011;13256;49.012;8.610;2023-06-10T05:01:19;8.98;;;5.68;;
25319;SDS011;13256;49.012;8.610;2023-06-10T05:03:47;7.20;;;5.93;;
25319;SDS011;13256;49.012;8.610;2023-06-10T05:06:26;8.52;;;5.70;;
25319;SDS011;13256;49.012;8.610;2023-06-10T05:08:53;8.18;;;5.43;;
25319;SDS011;13256;49.012;8.610;2023-06-10T05:11:22;7.47;;;5.68;;
25319;SDS011;13256;49.012;8.610;2023-06-10T05:13:54;7.18;;;5.65;;
25319;SDS011;13256;49.012;8.610;2023-06-10T05:16:23;7.63;;;5.57;;
25319;SDS011;13256;49.012;8.610;2023-06-10T05:18:50;9.20;;;5.57;;
25319;SDS011;13256;49.012;8.610;2023-06-10T05:21:18;7.28;;;5.45;;
25319;SDS011;13256;49.012;8.610;2023-06-10T05:23:46;10.82;;;6.03;;
25319;SDS011;13256;49.012;8.610;2023-06-10T05:26:17;9.35;;;6.00;;
25319;SDS011;13256;49.012;8.610;2023-06-10T05:28:49;8.30;;;6.03;;
25319;SDS011;13256;49.012;8.610;2023-06-10T05:31:17;7.15;;;5.60;;
25319;SDS011;13256;49.012;8.610;2023-06-10T05:33:44;7.63;;;5.47;;
25319;SDS011;13256;49.012;8.610;2023-06-10T05:36:15;7.03;;;5.10;;
25319;SDS011;13256;49.012;8.610;2023-06-10T05:38:42;7.28;;;5.30;;
25319;SDS011;13256;49.012;8.610;2023-06-10T05:41:09;7.35;;;5.05;;
25319;SDS011;13256;49.012;8.610;2023-06-10T05:43:36;6.47;;;5.13;;
25319;SDS011;13256;49.012;8.610;2023-06-10T05:46:03;6.13;;;4.85;;
25319;SDS011;13256;49.012;8.610;2023-06-10T05:48:39;7.22;;;4.80;;
25319;SDS011;13256;49.012;8.610;2023-06-10T05:51:06;6.43;;;4.50;;
25319;SDS011;13256;49.012;8.610;2023-06-10T05:53:34;6.80;;;4.78;;
25319;SDS011;13256;49.012;8.610;2023-06-10T05:56:06;6.68;;;4.88;;
25319;SDS011;13256;49.012;8.610;2023-06-10T05:58:33;6.47;;;4.50;;
25319;SDS011;13256;49.012;8.610;2023-06-10T06:01:04;8.38;;;4.53;;
25319;SDS011;13256;49.012;8.610;2023-06-10T06:03:43;5.95;;;4.38;;
25319;SDS011;13256;49.012;8.610;2023-06-10T06:06:15;6.40;;;4.22;;
25319;SDS011;13256;49.012;8.610;2023-06-10T06:08:48;5.35;;;4.00;;
25319;SDS011;13256;49.012;8.610;2023-06-10T06:11:15;7.72;;;4.78;;
25319;SDS011;13256;49.012;8.610;2023-06-10T06:13:42;6.70;;;4.35;;
25319;SDS011;13256;49.012;8.610;2023-06-10T06:16:09;4.88;;;4.00;;
25319;SDS011;13256;49.012;8.610;2023-06-10T06:18:36;7.00;;;4.47;;
25319;SDS011;13256;49.012;8.610;2023-06-10T06:21:03;5.35;;;4.03;;
25319;SDS011;13256;49.012;8.610;2023-06-10T06:23:37;7.07;;;4.47;;
25319;SDS011;13256;49.012;8.610;2023-06-10T06:26:04;5.53;;;4.50;;
25319;SDS011;13256;49.012;8.610;2023-06-10T06:28:34;6.03;;;4.53;;
25319;SDS011;13256;49.012;8.610;2023-06-10T06:31:01;6.15;;;4.53;;
25319;SDS011;13256;49.012;8.610;2023-06-10T06:33:29;6.20;;;4.43;;
25319;SDS011;13256;49.012;8.610;2023-06-10T06:35:55;7.38;;;4.55;;
25319;SDS011;13256;49.012;8.610;2023-06-10T06:38:22;7.60;;;4.35;;
25319;SDS011;13256;49.012;8.610;2023-06-10T06:40:54;8.38;;;4.60;;
25319;SDS011;13256;49.012;8.610;2023-06-10T06:43:21;6.13;;;4.43;;
25319;SDS011;13256;49.012;8.610;2023-06-10T06:45:55;6.43;;;4.20;;
25319;SDS011;13256;49.012;8.610;2023-06-10T06:51:19;6.25;;;4.70;;
25319;SDS011;13256;49.012;8.610;2023-06-10T06:53:54;5.40;;;3.67;;
25319;SDS011;13256;49.012;8.610;2023-06-10T06:56:24;6.18;;;4.00;;
25319;SDS011;13256;49.012;8.610;2023-06-10T06:58:57;7.43;;;4.20;;
25319;SDS011;13256;49.012;8.610;2023-06-10T07:01:27;7.18;;;4.35;;
25319;SDS011;13256;49.012;8.610;2023-06-10T07:03:55;4.50;;;3.55;;
25319;SDS011;13256;49.012;8.610;2023-06-10T07:06:23;5.13;;;3.78;;
25319;SDS011;13256;49.012;8.610;2023-06-10T07:08:52;6.90;;;4.72;;
25319;SDS011;13256;49.012;8.610;2023-06-10T07:11:19;4.95;;;3.47;;
25319;SDS011;13256;49.012;8.610;2023-06-10T07:13:46;6.22;;;4.28;;
25319;SDS011;13256;49.012;8.610;2023-06-10T07:16:13;7.82;;;4.00;;
25319;SDS011;13256;49.012;8.610;2023-06-10T07:18:40;6.22;;;4.30;;
25319;SDS011;13256;49.012;8.610;2023-06-10T07:21:07;6.25;;;4.43;;
25319;SDS011;13256;49.012;8.610;2023-06-10T07:23:34;6.20;;;4.10;;
25319;SDS011;13256;49.012;8.610;2023-06-10T07:26:01;6.78;;;4.00;;
25319;SDS011;13256;49.012;8.610;2023-06-10T07:28:31;6.78;;;4.13;;
25319;SDS011;13256;49.012;8.610;2023-06-10T07:31:00;5.00;;;3.88;;
25319;SDS011;13256;49.012;8.610;2023-06-10T07:33:28;45.40;;;12.15;;
25319;SDS011;13256;49.012;8.610;2023-06-10T07:35:57;5.47;;;4.00;;
25319;SDS011;13256;49.012;8.610;2023-06-10T07:38:26;5.20;;;4.20;;
25319;SDS011;13256;49.012;8.610;2023-06-10T07:40:53;8.48;;;4.38;;
25319;SDS011;13256;49.012;8.610;2023-06-10T07:43:20;5.95;;;3.97;;
25319;SDS011;13256;49.012;8.610;2023-06-10T07:45:54;4.15;;;3.47;;
25319;SDS011;13256;49.012;8.610;2023-06-10T07:48:26;4.95;;;3.80;;
25319;SDS011;13256;49.012;8.610;2023-06-10T07:50:54;6.38;;;3.80;;
25319;SDS011;13256;49.012;8.610;2023-06-10T07:53:20;7.25;;;4.75;;
25319;SDS011;13256;49.012;8.610;2023-06-10T07:55:47;5.40;;;3.78;;
25319;SDS011;13256;49.012;8.610;2023-06-10T07:58:14;5.25;;;3.90;;
25319;SDS011;13256;49.012;8.610;2023-06-10T08:00:43;5.70;;;4.13;;
25319;SDS011;13256;49.012;8.610;2023-06-10T08:03:10;5.57;;;4.03;;
25319;SDS011;13256;49.012;8.610;2023-06-10T08:05:38;5.45;;;3.72;;
25319;SDS011;13256;49.012;8.610;2023-06-10T08:08:05;4.88;;;4.10;;
25319;SDS011;13256;49.012;8.610;2023-06-10T08:10:34;7.32;;;4.40;;
25319;SDS011;13256;49.012;8.610;2023-06-10T08:13:01;5.40;;;4.28;;
25319;SDS011;13256;49.012;8.610;2023-06-10T08:15:30;5.53;;;3.95;;
25319;SDS011;13256;49.012;8.610;2023-06-10T08:18:01;6.13;;;4.20;;
25319;SDS011;13256;49.012;8.610;2023-06-10T08:23:15;6.28;;;3.88;;
25319;SDS011;13256;49.012;8.610;2023-06-10T08:26:03;4.35;;;3.47;;
25319;SDS011;13256;49.012;8.610;2023-06-10T08:28:30;6.90;;;4.53;;
25319;SDS011;13256;49.012;8.610;2023-06-10T08:31:16;4.85;;;3.80;;
25319;SDS011;13256;49.012;8.610;2023-06-10T08:33:52;6.93;;;4.70;;
25319;SDS011;13256;49.012;8.610;2023-06-10T08:39:10;5.18;;;3.75;;
25319;SDS011;13256;49.012;8.610;2023-06-10T08:41:41;4.93;;;3.70;;
25319;SDS011;13256;49.012;8.610;2023-06-10T08:47:14;4.47;;;3.47;;
25319;SDS011;13256;49.012;8.610;2023-06-10T08:49:50;5.50;;;3.67;;
25319;SDS011;13256;49.012;8.610;2023-06-10T08:52:27;5.93;;;3.90;;
25319;SDS011;13256;49.012;8.610;2023-06-10T08:55:00;5.22;;;3.38;;
25319;SDS011;13256;49.012;8.610;2023-06-10T08:57:30;5.20;;;3.50;;
25319;SDS011;13256;49.012;8.610;2023-06-10T09:00:05;5.22;;;3.72;;
25319;SDS011;13256;49.012;8.610;2023-06-10T09:05:02;4.43;;;3.55;;
25319;SDS011;13256;49.012;8.610;2023-06-10T09:07:32;4.20;;;3.38;;
25319;SDS011;13256;49.012;8.610;2023-06-10T09:10:03;7.10;;;4.35;;
25319;SDS011;13256;49.012;8.610;2023-06-10T09:12:34;4.47;;;3.60;;
25319;SDS011;13256;49.012;8.610;2023-06-10T09:15:01;5.70;;;3.72;;
25319;SDS011;13256;49.012;8.610;2023-06-10T09:17:29;4.57;;;3.70;;
25319;SDS011;13256;49.012;8.610;2023-06-10T09:20:10;5.38;;;4.03;;
25319;SDS011;13256;49.012;8.610;2023-06-10T09:22:41;4.85;;;3.55;;
25319;SDS011;13256;49.012;8.610;2023-06-10T09:25:11;3.53;;;3.22;;
25319;SDS011;13256;49.012;8.610;2023-06-10T09:27:49;5.47;;;3.53;;
25319;SDS011;13256;49.012;8.610;2023-06-10T09:30:25;5.22;;;4.00;;
25319;SDS011;13256;49.012;8.610;2023-06-10T09:32:53;5.53;;;3.85;;
25319;SDS011;13256;49.012;8.610;2023-06-10T09:35:25;6.63;;;3.97;;
25319;SDS011;13256;49.012;8.610;2023-06-10T09:37:57;7.07;;;3.78;;
25319;SDS011;13256;49.012;8.610;2023-06-10T09:43:02;4.28;;;3.78;;
25319;SDS011;13256;49.012;8.610;2023-06-10T09:45:29;5.47;;;3.50;;
25319;SDS011;13256;49.012;8.610;2023-06-10T09:47:58;4.20;;;3.80;;
25319;SDS011;13256;49.012;8.610;2023-06-10T09:50:28;6.18;;;4.15;;
25319;SDS011;13256;49.012;8.610;2023-06-10T09:53:03;4.47;;;3.45;;
25319;SDS011;13256;49.012;8.610;2023-06-10T09:55:34;4.47;;;3.40;;
25319;SDS011;13256;49.012;8.610;2023-06-10T09:58:03;5.53;;;3.65;;
25319;SDS011;13256;49.012;8.610;2023-06-10T10:00:33;4.03;;;3.60;;
25319;SDS011;13256;49.012;8.610;2023-06-10T10:03:03;6.03;;;3.75;;
25319;SDS011;13256;49.012;8.610;2023-06-10T10:05:37;4.30;;;3.17;;
25319;SDS011;13256;49.012;8.610;2023-06-10T10:14:11;4.93;;;3.45;;
25319;SDS011;13256;49.012;8.610;2023-06-10T10:17:10;4.85;;;3.60;;
25319;SDS011;13256;49.012;8.610;2023-06-10T10:19:46;4.28;;;3.47;;
25319;SDS011;13256;49.012;8.610;2023-06-10T10:22:26;6.28;;;3.35;;
25319;SDS011;13256;49.012;8.610;2023-06-10T10:25:11;8.05;;;3.63;;
25319;SDS011;13256;49.012;8.610;2023-06-10T10:27:47;7.07;;;3.80;;
25319;SDS011;13256;49.012;8.610;2023-06-10T10:30:25;4.05;;;3.50;;
25319;SDS011;13256;49.012;8.610;2023-06-10T10:33:06;4.07;;;3.47;;
25319;SDS011;13256;49.012;8.610;2023-06-10T10:35:38;4.45;;;3.47;;
25319;SDS011;13256;49.012;8.610;2023-06-10T10:38:09;5.43;;;3.35;;
25319;SDS011;13256;49.012;8.610;2023-06-10T10:40:36;4.63;;;3.78;;
25319;SDS011;13256;49.012;8.610;2023-06-10T10:43:05;4.03;;;3.20;;
25319;SDS011;13256;49.012;8.610;2023-06-10T10:45:37;5.97;;;4.15;;
25319;SDS011;13256;49.012;8.610;2023-06-10T10:48:13;4.40;;;3.67;;
25319;SDS011;13256;49.012;8.610;2023-06-10T10:50:41;4.53;;;3.60;;
25319;SDS011;13256;49.012;8.610;2023-06-10T10:53:22;3.70;;;3.25;;
25319;SDS011;13256;49.012;8.610;2023-06-10T10:59:03;4.63;;;3.88;;
25319;SDS011;13256;49.012;8.610;2023-06-10T11:05:04;5.28;;;3.63;;
25319;SDS011;13256;49.012;8.610;2023-06-10T11:07:32;4.68;;;3.78;;
25319;SDS011;13256;49.012;8.610;2023-06-10T11:10:07;4.22;;;3.70;;
25319;SDS011;13256;49.012;8.610;2023-06-10T11:15:33;4.45;;;3.45;;
25319;SDS011;13256;49.012;8.610;2023-06-10T11:18:12;4.13;;;3.50;;
25319;SDS011;13256;49.012;8.610;2023-06-10T11:20:44;4.00;;;3.42;;
25319;SDS011;13256;49.012;8.610;2023-06-10T11:28:42;5.38;;;4.10;;
25319;SDS011;13256;49.012;8.610;2023-06-10T11:31:23;5.05;;;3.47;;
25319;SDS011;13256;49.012;8.610;2023-06-10T11:36:54;4.10;;;3.55;;
25319;SDS011;13256;49.012;8.610;2023-06-10T11:39:22;3.95;;;3.55;;
25319;SDS011;13256;49.012;8.610;2023-06-10T11:41:53;4.53;;;3.80;;
25319;SDS011;13256;49.012;8.610;2023-06-10T11:44:25;4.25;;;3.10;;
25319;SDS011;13256;49.012;8.610;2023-06-10T11:47:02;5.13;;;3.78;;
25319;SDS011;13256;49.012;8.610;2023-06-10T11:49:34;4.70;;;3.70;;
25319;SDS011;13256;49.012;8.610;2023-06-10T11:52:04;8.57;;;4.10;;
25319;SDS011;13256;49.012;8.610;2023-06-10T11:54:32;6.65;;;3.67;;
25319;SDS011;13256;49.012;8.610;2023-06-10T11:56:59;5.65;;;3.45;;
25319;SDS011;13256;49.012;8.610;2023-06-10T11:59:29;5.35;;;3.78;;
25319;SDS011;13256;49.012;8.610;2023-06-10T12:02:03;4.40;;;3.55;;
25319;SDS011;13256;49.012;8.610;2023-06-10T12:04:30;4.60;;;3.45;;
25319;SDS011;13256;49.012;8.610;2023-06-10T12:07:00;4.30;;;3.40;;
25319;SDS011;13256;49.012;8.610;2023-06-10T12:09:29;4.20;;;3.20;;
25319;SDS011;13256;49.012;8.610;2023-06-10T12:12:01;4.90;;;3.20;;
25319;SDS011;13256;49.012;8.610;2023-06-10T12:14:51;3.78;;;3.40;;
25319;SDS011;13256;49.012;8.610;2023-06-10T12:31:07;5.03;;;3.20;;
25319;SDS011;13256;49.012;8.610;2023-06-10T12:33:41;4.35;;;3.15;;
25319;SDS011;13256;49.012;8.610;2023-06-10T12:36:15;4.07;;;2.95;;
25319;SDS011;13256;49.012;8.610;2023-06-10T12:38:46;3.53;;;3.10;;
25319;SDS011;13256;49.012;8.610;2023-06-10T12:47:36;3.28;;;2.70;;
25319;SDS011;13256;49.012;8.610;2023-06-10T12:50:05;4.20;;;2.80;;
25319;SDS011;13256;49.012;8.610;2023-06-10T12:55:39;4.93;;;3.00;;
25319;SDS011;13256;49.012;8.610;2023-06-10T12:58:06;4.60;;;3.50;;
25319;SDS011;13256;49.012;8.610;2023-06-10T13:09:36;5.13;;;3.10;;
25319;SDS011;13256;49.012;8.610;2023-06-10T13:12:05;4.10;;;3.28;;
25319;SDS011;13256;49.012;8.610;2023-06-10T13:14:43;4.13;;;2.90;;
25319;SDS011;13256;49.012;8.610;2023-06-10T13:17:11;4.70;;;3.25;;
25319;SDS011;13256;49.012;8.610;2023-06-10T13:19:39;3.50;;;2.80;;
25319;SDS011;13256;49.012;8.610;2023-06-10T13:22:06;4.95;;;3.10;;
25319;SDS011;13256;49.012;8.610;2023-06-10T13:24:40;3.80;;;3.08;;
25319;SDS011;13256;49.012;8.610;2023-06-10T13:27:10;3.80;;;3.28;;
25319;SDS011;13256;49.012;8.610;2023-06-10T13:29:38;4.00;;;3.22;;
25319;SDS011;13256;49.012;8.610;2023-06-10T13:32:09;4.10;;;3.00;;
25319;SDS011;13256;49.012;8.610;2023-06-10T13:34:37;7.00;;;3.20;;
25319;SDS011;13256;49.012;8.610;2023-06-10T13:37:09;3.33;;;2.97;;
25319;SDS011;13256;49.012;8.610;2023-06-10T13:39:40;4.95;;;3.03;;
25319;SDS011;13256;49.012;8.610;2023-06-10T13:45:03;4.57;;;3.20;;
25319;SDS011;13256;49.012;8.610;2023-06-10T13:47:32;3.28;;;2.97;;
25319;SDS011;13256;49.012;8.610;2023-06-10T13:49:59;3.72;;;2.97;;
25319;SDS011;13256;49.012;8.610;2023-06-10T13:55:30;2.72;;;2.45;;
25319;SDS011;13256;49.012;8.610;2023-06-10T13:58:12;3.65;;;2.80;;
25319;SDS011;13256;49.012;8.610;2023-06-10T14:10:22;4.13;;;2.80;;
25319;SDS011;13256;49.012;8.610;2023-06-10T14:12:50;3.70;;;2.65;;
25319;SDS011;13256;49.012;8.610;2023-06-10T14:15:45;4.20;;;2.80;;
25319;SDS011;13256;49.012;8.610;2023-06-10T14:24:20;3.20;;;2.65;;
25319;SDS011;13256;49.012;8.610;2023-06-10T14:26:49;6.32;;;2.38;;
25319;SDS011;13256;49.012;8.610;2023-06-10T14:29:21;3.63;;;2.70;;
25319;SDS011;13256;49.012;8.610;2023-06-10T14:31:50;5.65;;;3.13;;
25319;SDS011;13256;49.012;8.610;2023-06-10T14:34:18;3.45;;;2.72;;
25319;SDS011;13256;49.012;8.610;2023-06-10T14:36:48;3.55;;;2.50;;
25319;SDS011;13256;49.012;8.610;2023-06-10T14:39:44;4.78;;;2.35;;
25319;SDS011;13256;49.012;8.610;2023-06-10T14:42:14;3.15;;;2.60;;
25319;SDS011;13256;49.012;8.610;2023-06-10T14:44:45;3.75;;;2.67;;
25319;SDS011;13256;49.012;8.610;2023-06-10T14:47:19;8.88;;;3.42;;
25319;SDS011;13256;49.012;8.610;2023-06-10T14:49:52;2.90;;;2.60;;
25319;SDS011;13256;49.012;8.610;2023-06-10T14:52:21;6.18;;;2.78;;
25319;SDS011;13256;49.012;8.610;2023-06-10T14:54:52;4.53;;;2.47;;
25319;SDS011;13256;49.012;8.610;2023-06-10T14:57:19;19.50;;;3.73;;
25319;SDS011;13256;49.012;8.610;2023-06-10T14:59:46;3.75;;;2.47;;
25319;SDS011;13256;49.012;8.610;2023-06-10T15:02:23;10.00;;;2.80;;
25319;SDS011;13256;49.012;8.610;2023-06-10T15:08:13;3.75;;;2.72;;
25319;SDS011;13256;49.012;8.610;2023-06-10T15:10:57;6.70;;;2.85;;
25319;SDS011;13256;49.012;8.610;2023-06-10T15:25:18;4.43;;;2.70;;
25319;SDS011;13256;49.012;8.610;2023-06-10T15:27:59;6.25;;;2.60;;
25319;SDS011;13256;49.012;8.610;2023-06-10T15:30:27;6.85;;;3.22;;
25319;SDS011;13256;49.012;8.610;2023-06-10T15:35:46;5.47;;;2.95;;
25319;SDS011;13256;49.012;8.610;2023-06-10T15:44:08;2.95;;;2.60;;
25319;SDS011;13256;49.012;8.610;2023-06-10T15:46:38;2.10;;;1.90;;
25319;SDS011;13256;49.012;8.610;2023-06-10T15:49:10;7.75;;;3.38;;
25319;SDS011;13256;49.012;8.610;2023-06-10T15:57:01;7.40;;;3.75;;
25319;SDS011;13256;49.012;8.610;2023-06-10T16:02:51;2.88;;;2.40;;
25319;SDS011;13256;49.012;8.610;2023-06-10T16:23:10;3.88;;;2.75;;
25319;SDS011;13256;49.012;8.610;2023-06-10T16:25:38;2.97;;;2.78;;
25319;SDS011;13256;49.012;8.610;2023-06-10T16:36:52;7.22;;;4.22;;
25319;SDS011;13256;49.012;8.610;2023-06-10T16:48:39;3.30;;;2.70;;
25319;SDS011;13256;49.012;8.610;2023-06-10T16:51:11;6.72;;;4.00;;
25319;SDS011;13256;49.012;8.610;2023-06-10T16:56:33;6.93;;;3.88;;
25319;SDS011;13256;49.012;8.610;2023-06-10T16:59:05;6.47;;;3.95;;
25319;SDS011;13256;49.012;8.610;2023-06-10T17:01:33;7.20;;;3.70;;
25319;SDS011;13256;49.012;8.610;2023-06-10T17:04:07;6.07;;;4.03;;
25319;SDS011;13256;49.012;8.610;2023-06-10T17:06:40;3.72;;;3.00;;
25319;SDS011;13256;49.012;8.610;2023-06-10T17:09:14;4.55;;;2.83;;
25319;SDS011;13256;49.012;8.610;2023-06-10T17:12:33;5.53;;;4.22;;
25319;SDS011;13256;49.012;8.610;2023-06-10T17:15:02;4.53;;;2.88;;
25319;SDS011;13256;49.012;8.610;2023-06-10T17:20:32;9.57;;;3.08;;
25319;SDS011;13256;49.012;8.610;2023-06-10T17:26:19;6.90;;;3.58;;
25319;SDS011;13256;49.012;8.610;2023-06-10T17:28:50;6.22;;;3.30;;
25319;SDS011;13256;49.012;8.610;2023-06-10T17:31:17;3.65;;;2.60;;
25319;SDS011;13256;49.012;8.610;2023-06-10T17:33:49;6.03;;;3.10;;
25319;SDS011;13256;49.012;8.610;2023-06-10T17:36:31;3.58;;;3.05;;
25319;SDS011;13256;49.012;8.610;2023-06-10T17:42:12;2.42;;;2.22;;
25319;SDS011;13256;49.012;8.610;2023-06-10T17:48:00;8.55;;;3.15;;
25319;SDS011;13256;49.012;8.610;2023-06-10T17:53:36;5.80;;;3.00;;
25319;SDS011;13256;49.012;8.610;2023-06-10T17:59:40;4.28;;;3.00;;
25319;SDS011;13256;49.012;8.610;2023-06-10T18:02:09;4.90;;;2.90;;
25319;SDS011;13256;49.012;8.610;2023-06-10T18:13:50;4.18;;;3.25;;
25319;SDS011;13256;49.012;8.610;2023-06-10T18:19:18;6.35;;;3.80;;
25319;SDS011;13256;49.012;8.610;2023-06-10T18:28:42;2.92;;;2.58;;
25319;SDS011;13256;49.012;8.610;2023-06-10T18:34:04;4.60;;;2.50;;
25319;SDS011;13256;49.012;8.610;2023-06-10T18:36:32;4.05;;;2.78;;
25319;SDS011;13256;49.012;8.610;2023-06-10T18:42:19;3.20;;;2.80;;
25319;SDS011;13256;49.012;8.610;2023-06-10T18:44:46;3.00;;;2.63;;
25319;SDS011;13256;49.012;8.610;2023-06-10T18:53:03;3.80;;;2.35;;
25319;SDS011;13256;49.012;8.610;2023-06-10T18:58:43;2.57;;;2.27;;
25319;SDS011;13256;49.012;8.610;2023-06-10T19:06:52;2.55;;;2.30;;
25319;SDS011;13256;49.012;8.610;2023-06-10T19:29:00;2.75;;;2.30;;
25319;SDS011;13256;49.012;8.610;2023-06-10T19:31:28;3.97;;;2.30;;
25319;SDS011;13256;49.012;8.610;2023-06-10T19:58:04;4.13;;;2.90;;
25319;SDS011;13256;49.012;8.610;2023-06-10T20:37:31;4.53;;;3.13;;
25319;SDS011;13256;49.012;8.610;2023-06-10T20:42:36;4.25;;;3.38;;